sensor_id;sensor_type;location;lat;lon;timestamp;temperature;humidity
9885;DHT22;4981;50.966;4.842;2022-07-25T00:01:05;25.40;1.00
9885;DHT22;4981;50.966;4.842;2022-07-25T00:03:32;25.30;1.00
9885;DHT22;4981;50.966;4.842;2022-07-25T00:05:59;25.40;1.00
9885;DHT22;4981;50.966;4.842;2022-07-25T00:08:27;25.40;1.00
9885;DHT22;4981;50.966;4.842;2022-07-25T00:10:54;25.30;1.00
9885;DHT22;4981;50.966;4.842;2022-07-25T00:13:22;25.30;1.00
9885;DHT22;4981;50.966;4.842;2022-07-25T00:15:49;25.20;1.00
9885;DHT22;4981;50.966;4.842;2022-07-25T00:18:18;25.10;1.00
9885;DHT22;4981;50.966;4.842;2022-07-25T00:20:46;25.20;1.00
9885;DHT22;4981;50.966;4.842;2022-07-25T00:23:13;24.80;1.00
9885;DHT22;4981;50.966;4.842;2022-07-25T00:25:40;25.10;1.00
9885;DHT22;4981;50.966;4.842;2022-07-25T00:28:08;25.10;1.00
9885;DHT22;4981;50.966;4.842;2022-07-25T00:30:35;25.10;1.00
9885;DHT22;4981;50.966;4.842;2022-07-25T00:33:02;25.00;1.00
9885;DHT22;4981;50.966;4.842;2022-07-25T00:35:32;24.90;1.00
9885;DHT22;4981;50.966;4.842;2022-07-25T00:37:59;24.90;1.00
9885;DHT22;4981;50.966;4.842;2022-07-25T00:40:26;24.90;1.00
9885;DHT22;4981;50.966;4.842;2022-07-25T00:42:54;24.80;1.00
9885;DHT22;4981;50.966;4.842;2022-07-25T00:45:21;24.70;1.00
9885;DHT22;4981;50.966;4.842;2022-07-25T00:47:49;24.70;1.00
9885;DHT22;4981;50.966;4.842;2022-07-25T00:50:16;24.60;1.00
9885;DHT22;4981;50.966;4.842;2022-07-25T00:52:45;24.60;1.00
9885;DHT22;4981;50.966;4.842;2022-07-25T00:55:13;24.60;1.00
9885;DHT22;4981;50.966;4.842;2022-07-25T00:57:40;24.60;1.00
9885;DHT22;4981;50.966;4.842;2022-07-25T01:00:11;24.50;1.00
9885;DHT22;4981;50.966;4.842;2022-07-25T01:02:40;24.40;1.00
9885;DHT22;4981;50.966;4.842;2022-07-25T01:05:08;24.40;1.00
9885;DHT22;4981;50.966;4.842;2022-07-25T01:07:37;24.40;1.00
9885;DHT22;4981;50.966;4.842;2022-07-25T01:10:07;24.40;1.00
9885;DHT22;4981;50.966;4.842;2022-07-25T01:12:47;24.40;1.00
9885;DHT22;4981;50.966;4.842;2022-07-25T01:15:15;24.30;1.00
9885;DHT22;4981;50.966;4.842;2022-07-25T01:17:43;24.30;1.00
9885;DHT22;4981;50.966;4.842;2022-07-25T01:20:14;24.30;1.00
9885;DHT22;4981;50.966;4.842;2022-07-25T01:22:42;24.40;1.00
9885;DHT22;4981;50.966;4.842;2022-07-25T01:25:10;24.30;1.00
9885;DHT22;4981;50.966;4.842;2022-07-25T01:27:38;24.30;1.00
9885;DHT22;4981;50.966;4.842;2022-07-25T01:30:07;24.30;1.00
9885;DHT22;4981;50.966;4.842;2022-07-25T01:32:36;24.20;1.00
9885;DHT22;4981;50.966;4.842;2022-07-25T01:35:04;24.20;1.00
9885;DHT22;4981;50.966;4.842;2022-07-25T01:37:34;24.10;1.00
9885;DHT22;4981;50.966;4.842;2022-07-25T01:40:02;24.10;1.00
9885;DHT22;4981;50.966;4.842;2022-07-25T01:42:30;24.00;1.00
9885;DHT22;4981;50.966;4.842;2022-07-25T01:44:57;24.10;1.00
9885;DHT22;4981;50.966;4.842;2022-07-25T01:47:25;24.10;1.00
9885;DHT22;4981;50.966;4.842;2022-07-25T01:49:52;24.00;1.00
9885;DHT22;4981;50.966;4.842;2022-07-25T01:52:19;23.90;1.00
9885;DHT22;4981;50.966;4.842;2022-07-25T01:54:48;23.90;1.00
9885;DHT22;4981;50.966;4.842;2022-07-25T01:57:16;23.90;1.00
9885;DHT22;4981;50.966;4.842;2022-07-25T01:59:43;23.90;1.00
9885;DHT22;4981;50.966;4.842;2022-07-25T02:02:10;23.90;1.00
9885;DHT22;4981;50.966;4.842;2022-07-25T02:04:38;23.90;1.00
9885;DHT22;4981;50.966;4.842;2022-07-25T02:07:05;23.90;1.00
9885;DHT22;4981;50.966;4.842;2022-07-25T02:09:32;23.80;1.00
9885;DHT22;4981;50.966;4.842;2022-07-25T02:12:01;23.80;1.00
9885;DHT22;4981;50.966;4.842;2022-07-25T02:14:31;23.50;1.00
9885;DHT22;4981;50.966;4.842;2022-07-25T02:16:59;23.70;1.00
9885;DHT22;4981;50.966;4.842;2022-07-25T02:19:27;23.70;1.00
9885;DHT22;4981;50.966;4.842;2022-07-25T02:21:54;23.70;1.00
9885;DHT22;4981;50.966;4.842;2022-07-25T02:24:22;23.70;1.00
9885;DHT22;4981;50.966;4.842;2022-07-25T02:26:49;23.70;1.00
9885;DHT22;4981;50.966;4.842;2022-07-25T02:29:18;23.70;1.00
9885;DHT22;4981;50.966;4.842;2022-07-25T02:31:45;23.60;1.00
9885;DHT22;4981;50.966;4.842;2022-07-25T02:34:13;23.60;1.00
9885;DHT22;4981;50.966;4.842;2022-07-25T02:36:40;23.50;1.00
9885;DHT22;4981;50.966;4.842;2022-07-25T02:39:07;23.50;1.00
9885;DHT22;4981;50.966;4.842;2022-07-25T02:41:35;23.50;1.00
9885;DHT22;4981;50.966;4.842;2022-07-25T02:44:02;23.50;1.00
9885;DHT22;4981;50.966;4.842;2022-07-25T02:46:31;23.60;1.00
9885;DHT22;4981;50.966;4.842;2022-07-25T02:48:59;23.60;1.00
9885;DHT22;4981;50.966;4.842;2022-07-25T02:51:26;23.60;1.00
9885;DHT22;4981;50.966;4.842;2022-07-25T02:53:54;23.50;1.00
9885;DHT22;4981;50.966;4.842;2022-07-25T02:56:21;23.40;1.00
9885;DHT22;4981;50.966;4.842;2022-07-25T02:58:48;23.30;1.00
9885;DHT22;4981;50.966;4.842;2022-07-25T03:01:15;23.10;1.00
9885;DHT22;4981;50.966;4.842;2022-07-25T03:03:44;22.80;1.00
9885;DHT22;4981;50.966;4.842;2022-07-25T03:06:12;22.50;1.00
9885;DHT22;4981;50.966;4.842;2022-07-25T03:08:39;22.50;1.00
9885;DHT22;4981;50.966;4.842;2022-07-25T03:11:06;22.70;1.00
9885;DHT22;4981;50.966;4.842;2022-07-25T03:13:34;22.80;1.00
9885;DHT22;4981;50.966;4.842;2022-07-25T03:16:01;22.50;1.00
9885;DHT22;4981;50.966;4.842;2022-07-25T03:18:29;22.50;1.00
9885;DHT22;4981;50.966;4.842;2022-07-25T03:20:57;22.40;1.00
9885;DHT22;4981;50.966;4.842;2022-07-25T03:23:25;22.50;1.00
9885;DHT22;4981;50.966;4.842;2022-07-25T03:25:53;22.40;1.00
9885;DHT22;4981;50.966;4.842;2022-07-25T03:28:20;22.40;1.00
9885;DHT22;4981;50.966;4.842;2022-07-25T03:30:49;22.20;1.00
9885;DHT22;4981;50.966;4.842;2022-07-25T03:33:16;22.20;1.00
9885;DHT22;4981;50.966;4.842;2022-07-25T03:35:43;22.20;1.00
9885;DHT22;4981;50.966;4.842;2022-07-25T03:38:12;22.20;1.00
9885;DHT22;4981;50.966;4.842;2022-07-25T03:40:40;22.20;1.00
9885;DHT22;4981;50.966;4.842;2022-07-25T03:43:07;21.90;1.00
9885;DHT22;4981;50.966;4.842;2022-07-25T03:45:34;21.90;1.00
9885;DHT22;4981;50.966;4.842;2022-07-25T03:48:02;22.10;1.00
9885;DHT22;4981;50.966;4.842;2022-07-25T03:50:29;22.10;1.00
9885;DHT22;4981;50.966;4.842;2022-07-25T03:52:56;22.20;1.00
9885;DHT22;4981;50.966;4.842;2022-07-25T03:55:29;22.40;1.00
9885;DHT22;4981;50.966;4.842;2022-07-25T03:57:56;22.10;1.00
9885;DHT22;4981;50.966;4.842;2022-07-25T04:00:23;22.20;1.00
9885;DHT22;4981;50.966;4.842;2022-07-25T04:02:51;22.20;1.00
9885;DHT22;4981;50.966;4.842;2022-07-25T04:05:18;22.20;1.00
9885;DHT22;4981;50.966;4.842;2022-07-25T04:07:46;22.20;1.00
9885;DHT22;4981;50.966;4.842;2022-07-25T04:10:13;22.20;1.00
9885;DHT22;4981;50.966;4.842;2022-07-25T04:12:42;22.00;1.00
9885;DHT22;4981;50.966;4.842;2022-07-25T04:15:10;22.20;1.00
9885;DHT22;4981;50.966;4.842;2022-07-25T04:17:37;22.20;1.00
9885;DHT22;4981;50.966;4.842;2022-07-25T04:20:06;22.30;1.00
9885;DHT22;4981;50.966;4.842;2022-07-25T04:22:33;22.40;1.00
9885;DHT22;4981;50.966;4.842;2022-07-25T04:25:01;22.40;1.00
9885;DHT22;4981;50.966;4.842;2022-07-25T04:27:28;22.40;1.00
9885;DHT22;4981;50.966;4.842;2022-07-25T04:29:57;22.50;1.00
9885;DHT22;4981;50.966;4.842;2022-07-25T04:32:25;22.60;1.00
9885;DHT22;4981;50.966;4.842;2022-07-25T04:34:52;22.60;1.00
9885;DHT22;4981;50.966;4.842;2022-07-25T04:37:19;22.50;1.00
9885;DHT22;4981;50.966;4.842;2022-07-25T04:39:47;22.50;1.00
9885;DHT22;4981;50.966;4.842;2022-07-25T04:42:14;22.60;1.00
9885;DHT22;4981;50.966;4.842;2022-07-25T04:44:42;22.60;1.00
9885;DHT22;4981;50.966;4.842;2022-07-25T04:47:11;22.50;1.00
9885;DHT22;4981;50.966;4.842;2022-07-25T04:49:38;22.60;1.00
9885;DHT22;4981;50.966;4.842;2022-07-25T04:52:05;22.50;1.00
9885;DHT22;4981;50.966;4.842;2022-07-25T04:54:33;22.40;1.00
9885;DHT22;4981;50.966;4.842;2022-07-25T04:57:00;22.20;1.00
9885;DHT22;4981;50.966;4.842;2022-07-25T04:59:29;22.30;1.00
9885;DHT22;4981;50.966;4.842;2022-07-25T05:01:57;22.20;1.00
9885;DHT22;4981;50.966;4.842;2022-07-25T05:04:26;22.20;1.00
9885;DHT22;4981;50.966;4.842;2022-07-25T05:06:53;22.20;1.00
9885;DHT22;4981;50.966;4.842;2022-07-25T05:09:21;22.20;1.00
9885;DHT22;4981;50.966;4.842;2022-07-25T05:11:48;22.20;1.00
9885;DHT22;4981;50.966;4.842;2022-07-25T05:14:16;22.20;1.00
9885;DHT22;4981;50.966;4.842;2022-07-25T05:16:44;22.10;1.00
9885;DHT22;4981;50.966;4.842;2022-07-25T05:19:12;22.20;1.00
9885;DHT22;4981;50.966;4.842;2022-07-25T05:21:41;22.20;1.00
9885;DHT22;4981;50.966;4.842;2022-07-25T05:24:10;22.10;1.00
9885;DHT22;4981;50.966;4.842;2022-07-25T05:26:37;22.00;1.00
9885;DHT22;4981;50.966;4.842;2022-07-25T05:29:04;22.10;1.00
9885;DHT22;4981;50.966;4.842;2022-07-25T05:31:32;21.90;1.00
9885;DHT22;4981;50.966;4.842;2022-07-25T05:33:59;21.90;1.00
9885;DHT22;4981;50.966;4.842;2022-07-25T05:36:27;21.90;1.00
9885;DHT22;4981;50.966;4.842;2022-07-25T05:38:55;21.90;1.00
9885;DHT22;4981;50.966;4.842;2022-07-25T05:41:22;21.80;1.00
9885;DHT22;4981;50.966;4.842;2022-07-25T05:43:50;21.70;1.00
9885;DHT22;4981;50.966;4.842;2022-07-25T05:46:17;21.70;1.00
9885;DHT22;4981;50.966;4.842;2022-07-25T05:48:45;21.70;1.00
9885;DHT22;4981;50.966;4.842;2022-07-25T05:51:12;21.90;1.00
9885;DHT22;4981;50.966;4.842;2022-07-25T05:53:40;21.70;1.00
9885;DHT22;4981;50.966;4.842;2022-07-25T05:56:10;21.70;1.00
9885;DHT22;4981;50.966;4.842;2022-07-25T05:58:37;21.90;1.00
9885;DHT22;4981;50.966;4.842;2022-07-25T06:01:05;21.80;1.00
9885;DHT22;4981;50.966;4.842;2022-07-25T06:03:33;21.60;1.00
9885;DHT22;4981;50.966;4.842;2022-07-25T06:06:01;21.60;1.00
9885;DHT22;4981;50.966;4.842;2022-07-25T06:08:28;21.70;1.00
9885;DHT22;4981;50.966;4.842;2022-07-25T06:10:56;21.60;1.00
9885;DHT22;4981;50.966;4.842;2022-07-25T06:13:25;21.40;1.00
9885;DHT22;4981;50.966;4.842;2022-07-25T06:15:53;21.50;1.00
9885;DHT22;4981;50.966;4.842;2022-07-25T06:18:20;21.50;1.00
9885;DHT22;4981;50.966;4.842;2022-07-25T06:20:47;21.60;1.00
9885;DHT22;4981;50.966;4.842;2022-07-25T06:23:15;21.70;1.00
9885;DHT22;4981;50.966;4.842;2022-07-25T06:25:43;21.50;1.00
9885;DHT22;4981;50.966;4.842;2022-07-25T06:28:10;21.50;1.00
9885;DHT22;4981;50.966;4.842;2022-07-25T06:30:40;21.30;1.00
9885;DHT22;4981;50.966;4.842;2022-07-25T06:33:08;21.50;1.00
9885;DHT22;4981;50.966;4.842;2022-07-25T06:35:35;21.60;1.00
9885;DHT22;4981;50.966;4.842;2022-07-25T06:38:03;21.80;1.00
9885;DHT22;4981;50.966;4.842;2022-07-25T06:40:30;21.90;1.00
9885;DHT22;4981;50.966;4.842;2022-07-25T06:42:58;21.90;1.00
9885;DHT22;4981;50.966;4.842;2022-07-25T06:45:26;21.70;1.00
9885;DHT22;4981;50.966;4.842;2022-07-25T06:47:55;21.60;1.00
9885;DHT22;4981;50.966;4.842;2022-07-25T06:50:23;21.80;1.00
9885;DHT22;4981;50.966;4.842;2022-07-25T06:52:50;21.40;1.00
9885;DHT22;4981;50.966;4.842;2022-07-25T06:55:19;21.40;1.00
9885;DHT22;4981;50.966;4.842;2022-07-25T06:57:46;21.50;1.00
9885;DHT22;4981;50.966;4.842;2022-07-25T07:00:14;21.40;1.00
9885;DHT22;4981;50.966;4.842;2022-07-25T07:02:49;21.20;1.00
9885;DHT22;4981;50.966;4.842;2022-07-25T07:05:18;21.30;1.00
9885;DHT22;4981;50.966;4.842;2022-07-25T07:07:46;21.20;1.00
9885;DHT22;4981;50.966;4.842;2022-07-25T07:10:15;21.20;1.00
9885;DHT22;4981;50.966;4.842;2022-07-25T07:12:43;21.40;1.00
9885;DHT22;4981;50.966;4.842;2022-07-25T07:15:11;21.50;1.00
9885;DHT22;4981;50.966;4.842;2022-07-25T07:17:38;21.20;1.00
9885;DHT22;4981;50.966;4.842;2022-07-25T07:20:07;21.30;1.00
9885;DHT22;4981;50.966;4.842;2022-07-25T07:22:44;21.60;1.00
9885;DHT22;4981;50.966;4.842;2022-07-25T07:25:13;21.70;1.00
9885;DHT22;4981;50.966;4.842;2022-07-25T07:27:40;21.50;1.00
9885;DHT22;4981;50.966;4.842;2022-07-25T07:30:09;21.10;1.00
9885;DHT22;4981;50.966;4.842;2022-07-25T07:32:36;21.10;1.00
9885;DHT22;4981;50.966;4.842;2022-07-25T07:35:04;21.20;1.00
9885;DHT22;4981;50.966;4.842;2022-07-25T07:37:31;21.40;1.00
9885;DHT22;4981;50.966;4.842;2022-07-25T07:40:00;21.60;1.00
9885;DHT22;4981;50.966;4.842;2022-07-25T07:42:36;21.60;1.00
9885;DHT22;4981;50.966;4.842;2022-07-25T07:45:10;21.70;1.00
9885;DHT22;4981;50.966;4.842;2022-07-25T07:47:37;22.00;1.00
9885;DHT22;4981;50.966;4.842;2022-07-25T07:50:06;22.10;1.00
9885;DHT22;4981;50.966;4.842;2022-07-25T07:52:34;22.30;1.00
9885;DHT22;4981;50.966;4.842;2022-07-25T07:55:04;22.90;1.00
9885;DHT22;4981;50.966;4.842;2022-07-25T07:57:48;22.50;1.00
9885;DHT22;4981;50.966;4.842;2022-07-25T08:00:17;22.40;1.00
9885;DHT22;4981;50.966;4.842;2022-07-25T08:02:47;22.50;1.00
9885;DHT22;4981;50.966;4.842;2022-07-25T08:05:19;22.50;1.00
9885;DHT22;4981;50.966;4.842;2022-07-25T08:07:46;22.70;1.00
9885;DHT22;4981;50.966;4.842;2022-07-25T08:10:19;22.50;1.00
9885;DHT22;4981;50.966;4.842;2022-07-25T08:12:47;22.60;1.00
9885;DHT22;4981;50.966;4.842;2022-07-25T08:15:14;22.70;1.00
9885;DHT22;4981;50.966;4.842;2022-07-25T08:17:42;22.80;1.00
9885;DHT22;4981;50.966;4.842;2022-07-25T08:20:10;22.50;1.00
9885;DHT22;4981;50.966;4.842;2022-07-25T08:22:38;22.40;1.00
9885;DHT22;4981;50.966;4.842;2022-07-25T08:25:07;22.90;1.00
9885;DHT22;4981;50.966;4.842;2022-07-25T08:27:36;22.70;1.00
9885;DHT22;4981;50.966;4.842;2022-07-25T08:30:05;23.00;1.00
9885;DHT22;4981;50.966;4.842;2022-07-25T08:32:33;22.80;1.00
9885;DHT22;4981;50.966;4.842;2022-07-25T08:35:00;22.70;1.00
9885;DHT22;4981;50.966;4.842;2022-07-25T08:37:28;22.70;1.00
9885;DHT22;4981;50.966;4.842;2022-07-25T08:39:55;22.90;1.00
9885;DHT22;4981;50.966;4.842;2022-07-25T08:42:23;23.10;1.00
9885;DHT22;4981;50.966;4.842;2022-07-25T08:44:55;22.80;1.00
9885;DHT22;4981;50.966;4.842;2022-07-25T08:47:24;22.70;1.00
9885;DHT22;4981;50.966;4.842;2022-07-25T08:49:54;22.80;1.00
9885;DHT22;4981;50.966;4.842;2022-07-25T08:52:22;23.10;1.00
9885;DHT22;4981;50.966;4.842;2022-07-25T08:54:50;23.00;1.00
9885;DHT22;4981;50.966;4.842;2022-07-25T08:57:17;22.80;1.00
9885;DHT22;4981;50.966;4.842;2022-07-25T08:59:45;23.00;1.00
9885;DHT22;4981;50.966;4.842;2022-07-25T09:02:14;23.10;1.00
9885;DHT22;4981;50.966;4.842;2022-07-25T09:04:41;23.10;1.00
9885;DHT22;4981;50.966;4.842;2022-07-25T09:07:09;23.00;1.00
9885;DHT22;4981;50.966;4.842;2022-07-25T09:09:37;22.80;1.00
9885;DHT22;4981;50.966;4.842;2022-07-25T09:12:06;23.00;1.00
9885;DHT22;4981;50.966;4.842;2022-07-25T09:14:40;23.20;1.00
9885;DHT22;4981;50.966;4.842;2022-07-25T09:17:08;23.00;1.00
9885;DHT22;4981;50.966;4.842;2022-07-25T09:19:37;23.10;1.00
9885;DHT22;4981;50.966;4.842;2022-07-25T09:22:06;23.50;1.00
9885;DHT22;4981;50.966;4.842;2022-07-25T09:24:35;23.90;1.00
9885;DHT22;4981;50.966;4.842;2022-07-25T09:27:08;23.30;1.00
9885;DHT22;4981;50.966;4.842;2022-07-25T09:29:38;23.40;1.00
9885;DHT22;4981;50.966;4.842;2022-07-25T09:32:14;23.40;1.00
9885;DHT22;4981;50.966;4.842;2022-07-25T09:34:45;23.60;1.00
9885;DHT22;4981;50.966;4.842;2022-07-25T09:37:18;23.70;1.00
9885;DHT22;4981;50.966;4.842;2022-07-25T09:39:47;23.70;1.00
9885;DHT22;4981;50.966;4.842;2022-07-25T09:42:16;23.40;1.00
9885;DHT22;4981;50.966;4.842;2022-07-25T09:44:55;23.40;1.00
9885;DHT22;4981;50.966;4.842;2022-07-25T09:47:23;23.40;1.00
9885;DHT22;4981;50.966;4.842;2022-07-25T09:49:52;23.60;1.00
9885;DHT22;4981;50.966;4.842;2022-07-25T09:52:20;24.00;1.00
9885;DHT22;4981;50.966;4.842;2022-07-25T09:54:47;24.20;1.00
9885;DHT22;4981;50.966;4.842;2022-07-25T09:57:15;24.40;1.00
9885;DHT22;4981;50.966;4.842;2022-07-25T09:59:43;24.30;1.00
9885;DHT22;4981;50.966;4.842;2022-07-25T10:02:25;24.30;1.00
9885;DHT22;4981;50.966;4.842;2022-07-25T10:05:06;24.50;1.00
9885;DHT22;4981;50.966;4.842;2022-07-25T10:07:36;24.60;1.00
9885;DHT22;4981;50.966;4.842;2022-07-25T10:10:05;24.80;1.00
9885;DHT22;4981;50.966;4.842;2022-07-25T10:12:32;24.70;1.00
9885;DHT22;4981;50.966;4.842;2022-07-25T10:15:06;24.50;1.00
9885;DHT22;4981;50.966;4.842;2022-07-25T10:17:34;24.60;1.00
9885;DHT22;4981;50.966;4.842;2022-07-25T10:20:04;24.90;1.00
9885;DHT22;4981;50.966;4.842;2022-07-25T10:22:37;24.60;1.00
9885;DHT22;4981;50.966;4.842;2022-07-25T10:25:11;24.50;1.00
9885;DHT22;4981;50.966;4.842;2022-07-25T10:27:42;24.60;1.00
9885;DHT22;4981;50.966;4.842;2022-07-25T10:30:17;24.80;1.00
9885;DHT22;4981;50.966;4.842;2022-07-25T10:32:49;24.80;1.00
9885;DHT22;4981;50.966;4.842;2022-07-25T10:35:18;24.80;1.00
9885;DHT22;4981;50.966;4.842;2022-07-25T10:37:49;25.20;1.00
9885;DHT22;4981;50.966;4.842;2022-07-25T10:40:27;25.10;1.00
9885;DHT22;4981;50.966;4.842;2022-07-25T10:43:00;24.30;1.00
9885;DHT22;4981;50.966;4.842;2022-07-25T10:45:36;24.40;1.00
9885;DHT22;4981;50.966;4.842;2022-07-25T10:48:18;24.00;1.00
9885;DHT22;4981;50.966;4.842;2022-07-25T10:50:50;24.00;1.00
9885;DHT22;4981;50.966;4.842;2022-07-25T10:53:31;24.30;1.00
9885;DHT22;4981;50.966;4.842;2022-07-25T10:56:03;24.60;1.00
9885;DHT22;4981;50.966;4.842;2022-07-25T10:58:46;24.80;1.00
9885;DHT22;4981;50.966;4.842;2022-07-25T11:01:18;24.80;1.00
9885;DHT22;4981;50.966;4.842;2022-07-25T11:03:46;24.60;1.00
9885;DHT22;4981;50.966;4.842;2022-07-25T11:06:16;24.60;1.00
9885;DHT22;4981;50.966;4.842;2022-07-25T11:08:43;25.00;1.00
9885;DHT22;4981;50.966;4.842;2022-07-25T11:11:11;25.20;1.00
9885;DHT22;4981;50.966;4.842;2022-07-25T11:13:39;25.00;1.00
9885;DHT22;4981;50.966;4.842;2022-07-25T11:16:08;25.40;1.00
9885;DHT22;4981;50.966;4.842;2022-07-25T11:18:37;25.30;1.00
9885;DHT22;4981;50.966;4.842;2022-07-25T11:21:06;24.90;1.00
9885;DHT22;4981;50.966;4.842;2022-07-25T11:23:35;24.60;1.00
9885;DHT22;4981;50.966;4.842;2022-07-25T11:26:04;24.90;1.00
9885;DHT22;4981;50.966;4.842;2022-07-25T11:28:39;24.60;1.00
9885;DHT22;4981;50.966;4.842;2022-07-25T11:31:07;24.60;1.00
9885;DHT22;4981;50.966;4.842;2022-07-25T11:33:36;24.70;1.00
9885;DHT22;4981;50.966;4.842;2022-07-25T11:36:04;24.40;1.00
9885;DHT22;4981;50.966;4.842;2022-07-25T11:38:32;24.20;1.00
9885;DHT22;4981;50.966;4.842;2022-07-25T11:41:01;23.80;1.00
9885;DHT22;4981;50.966;4.842;2022-07-25T11:43:29;23.70;1.00
9885;DHT22;4981;50.966;4.842;2022-07-25T11:45:58;23.90;1.00
9885;DHT22;4981;50.966;4.842;2022-07-25T11:48:30;24.20;1.00
9885;DHT22;4981;50.966;4.842;2022-07-25T11:51:08;24.40;1.00
9885;DHT22;4981;50.966;4.842;2022-07-25T11:53:41;24.30;1.00
9885;DHT22;4981;50.966;4.842;2022-07-25T11:56:15;24.10;1.00
9885;DHT22;4981;50.966;4.842;2022-07-25T11:58:43;23.80;1.00
9885;DHT22;4981;50.966;4.842;2022-07-25T12:01:15;23.40;1.00
9885;DHT22;4981;50.966;4.842;2022-07-25T12:03:42;23.40;1.00
9885;DHT22;4981;50.966;4.842;2022-07-25T12:06:12;23.50;1.00
9885;DHT22;4981;50.966;4.842;2022-07-25T12:08:40;23.50;1.00
9885;DHT22;4981;50.966;4.842;2022-07-25T12:11:21;23.40;1.00
9885;DHT22;4981;50.966;4.842;2022-07-25T12:13:49;23.20;1.00
9885;DHT22;4981;50.966;4.842;2022-07-25T12:16:16;23.10;1.00
9885;DHT22;4981;50.966;4.842;2022-07-25T12:18:45;22.90;1.00
9885;DHT22;4981;50.966;4.842;2022-07-25T12:21:12;22.90;1.00
9885;DHT22;4981;50.966;4.842;2022-07-25T12:23:40;22.20;1.00
9885;DHT22;4981;50.966;4.842;2022-07-25T12:26:10;22.30;1.00
9885;DHT22;4981;50.966;4.842;2022-07-25T12:28:40;22.50;1.00
9885;DHT22;4981;50.966;4.842;2022-07-25T12:31:07;22.80;1.00
9885;DHT22;4981;50.966;4.842;2022-07-25T12:33:36;23.10;1.00
9885;DHT22;4981;50.966;4.842;2022-07-25T12:36:04;23.60;1.00
9885;DHT22;4981;50.966;4.842;2022-07-25T12:38:31;23.70;1.00
9885;DHT22;4981;50.966;4.842;2022-07-25T12:40:58;23.60;1.00
9885;DHT22;4981;50.966;4.842;2022-07-25T12:43:26;23.60;1.00
9885;DHT22;4981;50.966;4.842;2022-07-25T12:45:55;23.80;1.00
9885;DHT22;4981;50.966;4.842;2022-07-25T12:48:22;24.40;1.00
9885;DHT22;4981;50.966;4.842;2022-07-25T12:50:50;25.10;1.00
9885;DHT22;4981;50.966;4.842;2022-07-25T12:53:18;25.90;1.00
9885;DHT22;4981;50.966;4.842;2022-07-25T12:55:45;26.20;6.90
9885;DHT22;4981;50.966;4.842;2022-07-25T12:58:13;25.80;1.00
9885;DHT22;4981;50.966;4.842;2022-07-25T13:00:42;26.60;4.10
9885;DHT22;4981;50.966;4.842;2022-07-25T13:03:13;26.80;2.80
9885;DHT22;4981;50.966;4.842;2022-07-25T13:05:42;26.20;4.70
9885;DHT22;4981;50.966;4.842;2022-07-25T13:08:10;24.90;1.00
9885;DHT22;4981;50.966;4.842;2022-07-25T13:10:37;24.80;1.00
9885;DHT22;4981;50.966;4.842;2022-07-25T13:13:04;24.40;1.00
9885;DHT22;4981;50.966;4.842;2022-07-25T13:15:32;24.10;1.00
9885;DHT22;4981;50.966;4.842;2022-07-25T13:18:02;24.40;1.00
9885;DHT22;4981;50.966;4.842;2022-07-25T13:20:30;24.60;1.00
9885;DHT22;4981;50.966;4.842;2022-07-25T13:23:00;24.20;1.00
9885;DHT22;4981;50.966;4.842;2022-07-25T13:25:28;25.70;1.00
9885;DHT22;4981;50.966;4.842;2022-07-25T13:27:56;26.90;2.10
9885;DHT22;4981;50.966;4.842;2022-07-25T13:30:23;26.70;2.20
9885;DHT22;4981;50.966;4.842;2022-07-25T13:32:51;26.90;1.00
9885;DHT22;4981;50.966;4.842;2022-07-25T13:35:18;27.80;1.00
9885;DHT22;4981;50.966;4.842;2022-07-25T13:37:47;28.00;1.00
9885;DHT22;4981;50.966;4.842;2022-07-25T13:40:15;27.70;1.00
9885;DHT22;4981;50.966;4.842;2022-07-25T13:42:42;26.50;2.10
9885;DHT22;4981;50.966;4.842;2022-07-25T13:45:10;26.10;1.80
9885;DHT22;4981;50.966;4.842;2022-07-25T13:47:37;25.20;1.00
9885;DHT22;4981;50.966;4.842;2022-07-25T13:50:06;24.70;1.00
9885;DHT22;4981;50.966;4.842;2022-07-25T13:52:34;25.10;1.00
9885;DHT22;4981;50.966;4.842;2022-07-25T13:55:04;25.40;1.00
9885;DHT22;4981;50.966;4.842;2022-07-25T13:57:32;27.40;1.00
9885;DHT22;4981;50.966;4.842;2022-07-25T13:59:59;28.00;1.00
9885;DHT22;4981;50.966;4.842;2022-07-25T14:02:26;27.60;1.00
9885;DHT22;4981;50.966;4.842;2022-07-25T14:04:54;27.50;1.00
9885;DHT22;4981;50.966;4.842;2022-07-25T14:07:22;26.30;1.00
9885;DHT22;4981;50.966;4.842;2022-07-25T14:09:49;26.50;1.00
9885;DHT22;4981;50.966;4.842;2022-07-25T14:12:18;26.30;1.00
9885;DHT22;4981;50.966;4.842;2022-07-25T14:14:45;26.20;1.00
9885;DHT22;4981;50.966;4.842;2022-07-25T14:17:13;26.20;1.00
9885;DHT22;4981;50.966;4.842;2022-07-25T14:19:40;25.50;1.00
9885;DHT22;4981;50.966;4.842;2022-07-25T14:22:08;26.40;1.00
9885;DHT22;4981;50.966;4.842;2022-07-25T14:24:36;25.20;1.00
9885;DHT22;4981;50.966;4.842;2022-07-25T14:27:03;24.90;1.00
9885;DHT22;4981;50.966;4.842;2022-07-25T14:29:32;25.80;1.00
9885;DHT22;4981;50.966;4.842;2022-07-25T14:32:02;27.00;1.00
9885;DHT22;4981;50.966;4.842;2022-07-25T14:34:31;27.40;1.00
9885;DHT22;4981;50.966;4.842;2022-07-25T14:36:58;28.40;1.00
9885;DHT22;4981;50.966;4.842;2022-07-25T14:39:26;28.30;1.00
9885;DHT22;4981;50.966;4.842;2022-07-25T14:41:53;27.10;1.00
9885;DHT22;4981;50.966;4.842;2022-07-25T14:44:21;27.40;1.00
9885;DHT22;4981;50.966;4.842;2022-07-25T14:46:51;27.50;1.00
9885;DHT22;4981;50.966;4.842;2022-07-25T14:49:18;27.40;1.00
9885;DHT22;4981;50.966;4.842;2022-07-25T14:51:46;27.10;1.00
9885;DHT22;4981;50.966;4.842;2022-07-25T14:54:14;27.10;1.00
9885;DHT22;4981;50.966;4.842;2022-07-25T14:56:42;26.40;1.00
9885;DHT22;4981;50.966;4.842;2022-07-25T14:59:10;25.80;1.00
9885;DHT22;4981;50.966;4.842;2022-07-25T15:01:38;26.30;1.00
9885;DHT22;4981;50.966;4.842;2022-07-25T15:04:07;27.50;1.00
9885;DHT22;4981;50.966;4.842;2022-07-25T15:06:35;27.10;1.00
9885;DHT22;4981;50.966;4.842;2022-07-25T15:09:02;27.10;1.00
9885;DHT22;4981;50.966;4.842;2022-07-25T15:11:29;27.70;1.00
9885;DHT22;4981;50.966;4.842;2022-07-25T15:13:57;27.70;1.00
9885;DHT22;4981;50.966;4.842;2022-07-25T15:16:24;27.50;1.00
9885;DHT22;4981;50.966;4.842;2022-07-25T15:18:51;26.60;1.00
9885;DHT22;4981;50.966;4.842;2022-07-25T15:21:20;27.20;1.00
9885;DHT22;4981;50.966;4.842;2022-07-25T15:23:47;26.50;1.00
9885;DHT22;4981;50.966;4.842;2022-07-25T15:26:16;26.40;1.00
9885;DHT22;4981;50.966;4.842;2022-07-25T15:28:44;26.30;1.00
9885;DHT22;4981;50.966;4.842;2022-07-25T15:31:11;26.00;1.00
9885;DHT22;4981;50.966;4.842;2022-07-25T15:33:38;26.50;1.00
9885;DHT22;4981;50.966;4.842;2022-07-25T15:36:06;26.80;1.00
9885;DHT22;4981;50.966;4.842;2022-07-25T15:38:36;26.60;1.00
9885;DHT22;4981;50.966;4.842;2022-07-25T15:41:05;27.20;1.00
9885;DHT22;4981;50.966;4.842;2022-07-25T15:43:35;26.70;1.00
9885;DHT22;4981;50.966;4.842;2022-07-25T15:46:02;26.50;1.00
9885;DHT22;4981;50.966;4.842;2022-07-25T15:48:29;26.50;1.00
9885;DHT22;4981;50.966;4.842;2022-07-25T15:50:57;26.70;1.00
9885;DHT22;4981;50.966;4.842;2022-07-25T15:53:25;27.10;1.00
9885;DHT22;4981;50.966;4.842;2022-07-25T15:55:55;26.80;1.00
9885;DHT22;4981;50.966;4.842;2022-07-25T15:58:22;27.00;1.00
9885;DHT22;4981;50.966;4.842;2022-07-25T16:00:51;28.00;1.00
9885;DHT22;4981;50.966;4.842;2022-07-25T16:03:18;27.30;1.00
9885;DHT22;4981;50.966;4.842;2022-07-25T16:05:46;27.20;1.00
9885;DHT22;4981;50.966;4.842;2022-07-25T16:08:13;26.40;1.00
9885;DHT22;4981;50.966;4.842;2022-07-25T16:10:40;26.00;1.00
9885;DHT22;4981;50.966;4.842;2022-07-25T16:13:09;26.50;1.00
9885;DHT22;4981;50.966;4.842;2022-07-25T16:15:37;25.80;1.00
9885;DHT22;4981;50.966;4.842;2022-07-25T16:18:05;26.50;1.00
9885;DHT22;4981;50.966;4.842;2022-07-25T16:20:32;26.90;1.00
9885;DHT22;4981;50.966;4.842;2022-07-25T16:22:59;26.00;1.00
9885;DHT22;4981;50.966;4.842;2022-07-25T16:25:28;26.60;1.00